Time;durP1;ratioP1;P1;durP2;ratioP2;P2;SDS_P1;SDS_P2;PMS_P1;PMS_P2;Temp;Humidity;BMP_temperature;BMP_pressure;BME280_temperature;BME280_humidity;BME280_pressure;Samples;Min_cycle;Max_cycle;Signal;HPM_P1;HPM_P2
2023/04/16 00:00:41;;;;;;;111.50;88.70;;;;;;;5.64;100.00;98555.80;109521;1251;60105;-71
2023/04/16 00:03:27;;;;;;;106.00;88.30;;;;;;;5.63;100.00;98558.30;109357;1251;65039;-72
2023/04/16 00:05:55;;;;;;;107.80;89.50;;;;;;;5.61;100.00;98559.11;109508;1251;59318;-72
2023/04/16 00:08:23;;;;;;;110.10;90.10;;;;;;;5.59;100.00;98558.18;109532;1251;59040;-72
2023/04/16 00:10:51;;;;;;;111.50;87.30;;;;;;;5.57;100.00;98561.66;109515;1251;66015;-72
2023/04/16 00:13:18;;;;;;;109.80;83.80;;;;;;;5.54;100.00;98561.80;109486;1251;60159;-72
2023/04/16 00:15:45;;;;;;;111.30;84.60;;;;;;;5.52;100.00;98560.86;109493;1251;64114;-72
2023/04/16 00:18:11;;;;;;;111.60;86.20;;;;;;;5.51;100.00;98565.66;109509;1251;59282;-72
2023/04/16 00:20:38;;;;;;;106.20;85.30;;;;;;;5.49;100.00;98562.58;109476;1251;59084;-72
2023/04/16 00:23:05;;;;;;;108.00;84.60;;;;;;;5.47;100.00;98561.08;109483;1251;66011;-72
2023/04/16 00:25:32;;;;;;;99.70;78.60;;;;;;;5.46;100.00;98560.98;109527;1251;60105;-73
2023/04/16 00:27:58;;;;;;;107.70;81.70;;;;;;;5.43;100.00;98563.23;109504;1251;59076;-72
2023/04/16 00:30:24;;;;;;;95.10;77.60;;;;;;;5.40;100.00;98561.65;109537;1251;59168;-72
2023/04/16 00:32:51;;;;;;;96.60;79.60;;;;;;;5.37;100.00;98568.15;109531;1251;59018;-72
2023/04/16 00:35:17;;;;;;;100.70;83.00;;;;;;;5.35;100.00;98570.92;109556;1251;59075;-72
2023/04/16 00:37:44;;;;;;;107.30;84.60;;;;;;;5.33;100.00;98570.33;109522;1251;60205;-72
2023/04/16 00:40:11;;;;;;;102.60;81.30;;;;;;;5.31;100.00;98575.33;109496;1251;59083;-72
2023/04/16 00:42:37;;;;;;;107.10;80.10;;;;;;;5.30;100.00;98577.70;109485;1251;58977;-72
2023/04/16 00:45:04;;;;;;;102.30;80.50;;;;;;;5.29;100.00;98582.30;109277;1251;59497;-72
2023/04/16 00:47:32;;;;;;;100.50;81.00;;;;;;;5.27;100.00;98583.26;109477;1251;66051;-72
2023/04/16 00:49:58;;;;;;;104.30;81.10;;;;;;;5.26;100.00;98586.86;109413;1251;60289;-72
2023/04/16 00:52:26;;;;;;;104.40;80.80;;;;;;;5.25;100.00;98587.09;109461;1251;64002;-72
2023/04/16 00:54:53;;;;;;;105.40;81.60;;;;;;;5.24;100.00;98593.85;109480;1251;59179;-72
2023/04/16 00:57:22;;;;;;;102.00;80.40;;;;;;;5.22;100.00;98595.33;109527;1251;59013;-73
2023/04/16 00:59:50;;;;;;;97.90;76.60;;;;;;;5.22;100.00;98601.16;109298;1251;64769;-72
2023/04/16 01:02:16;;;;;;;93.60;74.50;;;;;;;5.22;100.00;98601.85;109401;1251;59045;-72
2023/04/16 01:04:43;;;;;;;93.50;74.10;;;;;;;5.22;100.00;98602.05;109488;1251;64090;-72
2023/04/16 01:07:10;;;;;;;85.60;69.70;;;;;;;5.20;100.00;98601.61;109510;1251;58956;-72
2023/04/16 01:09:36;;;;;;;88.80;69.30;;;;;;;5.17;100.00;98603.19;109484;1251;58963;-72
2023/04/16 01:12:03;;;;;;;88.60;67.70;;;;;;;5.13;100.00;98607.42;109494;1251;65735;-72
2023/04/16 01:14:35;;;;;;;89.50;72.80;;;;;;;5.10;100.00;98613.06;109340;1251;60183;-72
2023/04/16 01:17:02;;;;;;;85.50;68.00;;;;;;;5.07;100.00;98617.08;109509;1251;64053;-72
2023/04/16 01:19:35;;;;;;;92.90;72.70;;;;;;;5.05;100.00;98616.66;109495;1251;58942;-72
2023/04/16 01:22:02;;;;;;;89.50;70.00;;;;;;;5.03;100.00;98617.81;109507;1251;59028;-72
2023/04/16 01:24:29;;;;;;;87.40;69.70;;;;;;;5.02;100.00;98613.81;109524;1251;67353;-72
2023/04/16 01:26:59;;;;;;;91.00;70.30;;;;;;;5.00;100.00;98611.25;109453;1251;60106;-72
2023/04/16 01:29:26;;;;;;;88.80;73.00;;;;;;;4.98;100.00;98611.88;109288;1251;62982;-72
2023/04/16 01:31:53;;;;;;;86.80;69.10;;;;;;;4.96;100.00;98613.58;109314;1251;59492;-72
2023/04/16 01:34:19;;;;;;;91.60;71.90;;;;;;;4.94;100.00;98613.48;109517;1251;59044;-72
2023/04/16 01:36:46;;;;;;;80.30;64.60;;;;;;;4.93;100.00;98615.13;109499;1251;58987;-72
2023/04/16 01:39:14;;;;;;;83.90;66.60;;;;;;;4.94;100.00;98618.09;109512;1251;58955;-72
2023/04/16 01:41:41;;;;;;;88.50;70.60;;;;;;;4.95;100.00;98616.62;109462;1251;64033;-72
2023/04/16 01:44:08;;;;;;;92.70;72.50;;;;;;;4.96;100.00;98610.57;109414;1251;59037;-73
2023/04/16 01:46:34;;;;;;;85.90;67.70;;;;;;;4.97;100.00;98608.95;109484;1251;58878;-72
2023/04/16 01:49:03;;;;;;;72.10;59.50;;;;;;;4.98;100.00;98607.48;109507;1251;65991;-72
2023/04/16 01:51:30;;;;;;;69.40;54.60;;;;;;;4.98;100.00;98605.39;109448;1251;58985;-72
2023/04/16 01:53:57;;;;;;;63.40;51.30;;;;;;;4.98;100.00;98605.02;109532;1251;64033;-72
2023/04/16 01:56:24;;;;;;;61.20;50.40;;;;;;;4.99;100.00;98608.34;109496;1251;58937;-72
2023/04/16 01:58:51;;;;;;;64.30;49.80;;;;;;;4.98;100.00;98608.21;109512;1251;59025;-72
2023/04/16 02:01:18;;;;;;;61.40;47.70;;;;;;;4.96;100.00;98610.21;109420;1251;66065;-72
2023/04/16 02:03:45;;;;;;;59.10;48.20;;;;;;;4.94;100.00;98613.84;109580;1251;58981;-72
2023/04/16 02:06:11;;;;;;;64.80;49.40;;;;;;;4.91;100.00;98616.27;109474;1251;62804;-72
2023/04/16 02:08:38;;;;;;;62.00;48.40;;;;;;;4.88;100.00;98616.63;109459;1251;59057;-72
2023/04/16 02:11:04;;;;;;;55.90;46.90;;;;;;;4.84;100.00;98615.92;109462;1251;59116;-72
2023/04/16 02:13:31;;;;;;;58.40;46.60;;;;;;;4.80;100.00;98618.05;109525;1251;59628;-72
2023/04/16 02:15:58;;;;;;;58.00;45.90;;;;;;;4.77;100.00;98616.27;109495;1251;59008;-73
2023/04/16 02:18:24;;;;;;;54.60;43.20;;;;;;;4.74;100.00;98620.11;109455;1251;63128;-72
2023/04/16 02:20:51;;;;;;;55.00;40.80;;;;;;;4.73;100.00;98620.55;109476;1251;59032;-72
2023/04/16 02:23:17;;;;;;;53.30;39.80;;;;;;;4.73;100.00;98620.38;109279;1253;59128;-72
2023/04/16 02:25:45;;;;;;;53.30;39.40;;;;;;;4.74;100.00;98623.66;109518;1251;66020;-72
2023/04/16 02:28:14;;;;;;;56.10;39.50;;;;;;;4.76;100.00;98626.55;109450;1251;60128;-72
2023/04/16 02:30:41;;;;;;;50.30;39.20;;;;;;;4.77;100.00;98628.25;109326;1251;62938;-72
2023/04/16 02:33:09;;;;;;;53.70;41.20;;;;;;;4.75;100.00;98624.48;109518;1251;59017;-72
2023/04/16 02:35:37;;;;;;;55.30;40.70;;;;;;;4.71;100.00;98625.94;109534;1251;58769;-72
2023/04/16 02:38:04;;;;;;;50.50;38.00;;;;;;;4.67;100.00;98628.95;109436;1251;64859;-72
2023/04/16 02:40:31;;;;;;;52.60;37.80;;;;;;;4.64;100.00;98629.96;109491;1251;59141;-71
2023/04/16 02:42:59;;;;;;;46.40;35.90;;;;;;;4.62;100.00;98635.16;109405;1251;62873;-72
2023/04/16 02:45:26;;;;;;;47.60;37.90;;;;;;;4.59;100.00;98640.92;109502;1251;59378;-72
2023/04/16 02:47:53;;;;;;;46.60;37.50;;;;;;;4.55;100.00;98645.69;109558;1251;59034;-72
2023/04/16 02:50:19;;;;;;;50.90;39.40;;;;;;;4.50;100.00;98647.71;109494;1251;66448;-72
2023/04/16 02:52:46;;;;;;;56.00;40.90;;;;;;;4.44;100.00;98653.78;109530;1251;59087;-71
2023/04/16 02:55:12;;;;;;;55.20;42.20;;;;;;;4.37;100.00;98651.95;109517;1251;64135;-72
2023/04/16 02:57:39;;;;;;;54.70;40.40;;;;;;;4.36;100.00;98655.05;109509;1251;59000;-72
2023/04/16 03:00:06;;;;;;;53.20;39.90;;;;;;;4.36;100.00;98653.45;109556;1251;59069;-72
2023/04/16 03:02:33;;;;;;;51.10;39.70;;;;;;;4.36;100.00;98659.24;109268;1251;73697;-72
2023/04/16 03:05:00;;;;;;;55.30;43.50;;;;;;;4.35;100.00;98661.42;109574;1251;60359;-72
2023/04/16 03:07:26;;;;;;;57.00;43.40;;;;;;;4.33;100.00;98664.84;109512;1251;59370;-72
2023/04/16 03:09:52;;;;;;;54.20;43.50;;;;;;;4.32;100.00;98660.65;109271;1251;58998;-72
2023/04/16 03:12:19;;;;;;;48.90;39.40;;;;;;;4.32;100.00;98664.36;109474;1251;59107;-73
2023/04/16 03:14:46;;;;;;;50.50;38.40;;;;;;;4.29;100.00;98670.65;109566;1251;64846;-72
2023/04/16 03:17:13;;;;;;;47.90;37.90;;;;;;;4.23;100.00;98675.14;109537;1251;58955;-71
2023/04/16 03:19:39;;;;;;;49.40;38.90;;;;;;;4.15;100.00;98682.72;109527;1251;59090;-72
2023/04/16 03:22:05;;;;;;;51.40;38.80;;;;;;;4.11;100.00;98684.31;109512;1251;59186;-72
2023/04/16 03:24:32;;;;;;;48.20;39.10;;;;;;;4.09;100.00;98682.66;109546;1251;59020;-72
2023/04/16 03:26:58;;;;;;;47.80;38.60;;;;;;;4.09;100.00;98682.28;109507;1251;59072;-72
2023/04/16 03:29:26;;;;;;;50.40;39.70;;;;;;;4.11;100.00;98685.40;109548;1251;59082;-72
2023/04/16 03:31:52;;;;;;;55.40;42.90;;;;;;;4.12;100.00;98689.02;109536;1251;64109;-72
2023/04/16 03:34:18;;;;;;;51.10;40.50;;;;;;;4.14;100.00;98688.20;109535;1251;59035;-72
2023/04/16 03:36:45;;;;;;;48.40;38.60;;;;;;;4.16;100.00;98690.23;109509;1251;58936;-72
2023/04/16 03:39:12;;;;;;;47.50;39.90;;;;;;;4.16;100.00;98691.45;109567;1251;66294;-72
2023/04/16 03:41:38;;;;;;;44.70;36.20;;;;;;;4.14;100.00;98695.59;109522;1251;59046;-72
2023/04/16 03:44:05;;;;;;;46.60;38.60;;;;;;;4.11;100.00;98699.10;109535;1251;64064;-72
2023/04/16 03:46:31;;;;;;;48.60;41.00;;;;;;;4.07;100.00;98704.36;109490;1251;59196;-72
2023/04/16 03:48:58;;;;;;;57.40;45.20;;;;;;;4.04;100.00;98709.94;109576;1251;59052;-72
2023/04/16 03:51:25;;;;;;;60.30;47.80;;;;;;;4.04;100.00;98714.69;109471;1251;66039;-72
2023/04/16 03:53:51;;;;;;;58.80;45.20;;;;;;;4.06;100.00;98717.27;109506;1251;59238;-72
2023/04/16 03:56:18;;;;;;;49.90;42.00;;;;;;;4.08;100.00;98720.52;109556;1251;62829;-72
2023/04/16 03:58:44;;;;;;;49.50;41.40;;;;;;;4.09;100.00;98720.98;109510;1251;59166;-72
2023/04/16 04:01:11;;;;;;;50.00;39.60;;;;;;;4.08;100.00;98728.05;109425;1251;59096;-72
2023/04/16 04:03:37;;;;;;;43.40;37.50;;;;;;;4.06;100.00;98731.29;109536;1251;59009;-72
2023/04/16 04:06:07;;;;;;;48.10;36.80;;;;;;;4.07;100.00;98733.02;109539;1251;58968;-72
2023/04/16 04:08:35;;;;;;;46.80;38.20;;;;;;;4.10;100.00;98736.21;109440;1251;62893;-72
2023/04/16 04:11:01;;;;;;;46.60;39.30;;;;;;;4.20;100.00;98738.25;109543;1251;59048;-72
2023/04/16 04:13:28;;;;;;;44.40;38.10;;;;;;;4.41;100.00;98739.07;109516;1251;58923;-72
2023/04/16 04:15:55;;;;;;;46.00;37.30;;;;;;;4.61;100.00;98736.36;109486;1251;65827;-72
2023/04/16 04:18:21;;;;;;;39.50;33.30;;;;;;;4.87;100.00;98743.23;109523;1251;59012;-72
2023/04/16 04:20:48;;;;;;;41.80;34.70;;;;;;;5.18;100.00;98744.38;109561;1251;59008;-72
2023/04/16 04:23:14;;;;;;;35.20;31.20;;;;;;;5.40;100.00;98743.09;109460;1251;58938;-72
2023/04/16 04:25:41;;;;;;;34.40;30.60;;;;;;;5.67;100.00;98743.70;109514;1251;59062;-72
2023/04/16 04:28:07;;;;;;;31.20;27.70;;;;;;;5.92;100.00;98744.86;109496;1251;58942;-72
2023/04/16 04:30:34;;;;;;;31.70;27.50;;;;;;;6.29;100.00;98745.60;109523;1252;58979;-72
2023/04/16 04:33:01;;;;;;;30.80;27.60;;;;;;;6.70;100.00;98751.13;109485;1251;62615;-72
2023/04/16 04:35:28;;;;;;;31.80;28.60;;;;;;;7.07;100.00;98758.60;109501;1251;58941;-73
2023/04/16 04:37:54;;;;;;;33.60;30.00;;;;;;;7.31;100.00;98763.95;109524;1251;58853;-73
2023/04/16 04:40:21;;;;;;;33.00;29.70;;;;;;;7.49;100.00;98764.69;109485;1252;65730;-72
2023/04/16 04:42:47;;;;;;;30.70;27.10;;;;;;;7.71;100.00;98765.73;109465;1251;60125;-72
2023/04/16 04:45:14;;;;;;;27.50;24.00;;;;;;;7.91;100.00;98766.14;109528;1251;62870;-72
2023/04/16 04:47:41;;;;;;;25.20;22.50;;;;;;;8.10;100.00;98767.10;109450;1256;58988;-72
2023/04/16 04:50:08;;;;;;;24.80;22.00;;;;;;;8.21;100.00;98771.41;109420;1253;59045;-72
2023/04/16 04:52:34;;;;;;;25.90;22.90;;;;;;;8.37;100.00;98773.79;109224;1251;66028;-72
2023/04/16 04:55:01;;;;;;;24.70;21.70;;;;;;;8.61;100.00;98775.67;109552;1251;60213;-73
2023/04/16 04:57:27;;;;;;;26.70;22.90;;;;;;;8.99;100.00;98777.71;109469;1252;63747;-73
2023/04/16 04:59:54;;;;;;;26.40;22.90;;;;;;;9.49;100.00;98778.39;109536;1251;59148;-73
2023/04/16 05:02:20;;;;;;;29.20;24.60;;;;;;;10.01;100.00;98779.34;109400;1253;59067;-73
2023/04/16 05:04:47;;;;;;;26.60;23.30;;;;;;;10.47;100.00;98777.21;109507;1251;66120;-73
2023/04/16 05:07:14;;;;;;;23.90;21.40;;;;;;;10.85;100.00;98775.30;109477;1251;60214;-73
2023/04/16 05:09:40;;;;;;;26.10;21.70;;;;;;;10.62;100.00;98778.67;109459;1251;64045;-73
2023/04/16 05:12:07;;;;;;;26.70;24.10;;;;;;;10.26;100.00;98780.27;109520;1251;59130;-73
2023/04/16 05:14:35;;;;;;;25.90;23.10;;;;;;;10.15;100.00;98783.33;109485;1251;58861;-73
2023/04/16 05:17:01;;;;;;;24.30;21.80;;;;;;;10.08;100.00;98783.45;109496;1251;66061;-73
2023/04/16 05:19:28;;;;;;;25.90;23.20;;;;;;;9.99;100.00;98784.39;109289;1251;59023;-73
2023/04/16 05:21:54;;;;;;;23.90;21.30;;;;;;;9.87;100.00;98786.49;109492;1251;64037;-74
2023/04/16 05:24:21;;;;;;;27.90;22.50;;;;;;;9.74;100.00;98793.44;109225;1251;59446;-73
2023/04/16 05:26:47;;;;;;;29.60;24.40;;;;;;;9.66;100.00;98795.50;109395;1251;59100;-73
2023/04/16 05:29:14;;;;;;;32.20;25.70;;;;;;;9.61;100.00;98794.27;109575;1251;59246;-73
2023/04/16 05:31:40;;;;;;;33.80;27.00;;;;;;;9.59;100.00;98796.48;109556;1253;58962;-73
2023/04/16 05:34:07;;;;;;;36.60;28.80;;;;;;;9.54;100.00;98799.67;109526;1251;62966;-73
2023/04/16 05:36:33;;;;;;;37.40;28.10;;;;;;;9.49;100.00;98801.46;109526;1251;59060;-73
2023/04/16 05:39:00;;;;;;;37.10;28.30;;;;;;;9.41;100.00;98801.45;109524;1251;58935;-73
2023/04/16 05:41:26;;;;;;;41.40;29.90;;;;;;;9.33;100.00;98801.96;109507;1251;59192;-73
2023/04/16 05:43:53;;;;;;;39.50;28.70;;;;;;;9.32;100.00;98803.63;109535;1251;58917;-73
2023/04/16 05:46:19;;;;;;;43.10;28.80;;;;;;;9.34;100.00;98802.74;109486;1251;59045;-73
2023/04/16 05:48:46;;;;;;;39.80;29.20;;;;;;;9.35;100.00;98812.27;109508;1251;58941;-73
2023/04/16 05:51:12;;;;;;;39.20;28.30;;;;;;;9.40;100.00;98813.91;109244;1251;58954;-73
2023/04/16 05:53:39;;;;;;;38.00;27.50;;;;;;;9.57;100.00;98818.47;109513;1251;59270;-73
2023/04/16 05:56:06;;;;;;;34.30;26.30;;;;;;;9.79;100.00;98821.44;109518;1251;60287;-73
2023/04/16 05:58:33;;;;;;;35.70;25.70;;;;;;;9.92;100.00;98823.63;109501;1251;62953;-73
2023/04/16 06:01:00;;;;;;;33.30;26.30;;;;;;;9.96;100.00;98828.16;109542;1251;59259;-74
2023/04/16 06:03:27;;;;;;;33.50;25.10;;;;;;;9.97;100.00;98834.42;109543;1252;59155;-73
2023/04/16 06:05:53;;;;;;;35.20;25.70;;;;;;;10.14;100.00;98837.71;109500;1251;64843;-73
2023/04/16 06:08:19;;;;;;;31.30;24.00;;;;;;;10.17;100.00;98837.40;109309;1251;59113;-73
2023/04/16 06:10:46;;;;;;;32.80;26.00;;;;;;;10.10;100.00;98835.88;109561;1251;62789;-73
2023/04/16 06:13:38;;;;;;;33.60;24.60;;;;;;;10.15;100.00;98837.46;109504;1251;58976;-73
2023/04/16 06:16:05;;;;;;;31.20;25.90;;;;;;;10.30;100.00;98842.88;109532;1251;59137;-74
2023/04/16 06:18:31;;;;;;;30.00;23.90;;;;;;;10.36;100.00;98843.00;109495;1251;64824;-74
2023/04/16 06:20:58;;;;;;;31.10;24.10;;;;;;;10.40;100.00;98845.05;109527;1251;59888;-74
2023/04/16 06:23:25;;;;;;;28.20;23.20;;;;;;;10.48;100.00;98844.32;109513;1251;64803;-73
2023/04/16 06:25:51;;;;;;;29.40;21.30;;;;;;;10.56;100.00;98842.70;109525;1251;58998;-74
2023/04/16 06:28:18;;;;;;;27.20;21.60;;;;;;;10.66;100.00;98841.49;109539;1251;59102;-73
2023/04/16 06:30:45;;;;;;;29.20;23.80;;;;;;;10.87;100.00;98836.59;109541;1251;59386;-74
2023/04/16 06:33:12;;;;;;;27.00;22.60;;;;;;;10.97;100.00;98837.48;109555;1251;59215;-74
2023/04/16 06:35:38;;;;;;;28.70;23.80;;;;;;;11.03;100.00;98839.74;109509;1251;63639;-73
2023/04/16 06:38:05;;;;;;;29.80;24.10;;;;;;;11.08;100.00;98843.88;109544;1251;59669;-74
2023/04/16 06:40:31;;;;;;;28.90;22.70;;;;;;;11.19;100.00;98848.53;109521;1251;59834;-74
2023/04/16 06:42:58;;;;;;;28.10;23.00;;;;;;;11.33;100.00;98843.98;109570;1251;59608;-73
2023/04/16 06:45:25;;;;;;;30.10;24.30;;;;;;;11.44;100.00;98846.08;109512;1251;59824;-74
2023/04/16 06:47:52;;;;;;;30.00;24.00;;;;;;;11.55;100.00;98848.66;109300;1251;64869;-72
2023/04/16 06:50:18;;;;;;;30.00;23.80;;;;;;;11.86;100.00;98848.30;109466;1251;59075;-73
2023/04/16 06:52:45;;;;;;;26.10;22.90;;;;;;;12.04;100.00;98852.02;109511;1251;58908;-73
2023/04/16 06:55:11;;;;;;;27.50;21.60;;;;;;;12.07;100.00;98853.73;109488;1251;65977;-73
2023/04/16 06:57:39;;;;;;;28.50;22.70;;;;;;;12.22;100.00;98852.60;109498;1251;59421;-73
2023/04/16 07:00:06;;;;;;;30.90;22.80;;;;;;;12.41;100.00;98848.30;109540;1251;64082;-71
2023/04/16 07:02:33;;;;;;;26.20;21.70;;;;;;;12.70;100.00;98850.31;109490;1251;58925;-73
2023/04/16 07:05:00;;;;;;;23.60;20.50;;;;;;;12.88;100.00;98849.95;109518;1251;59252;-73
2023/04/16 07:07:27;;;;;;;26.90;20.80;;;;;;;12.79;100.00;98856.60;109218;1254;67201;-72
2023/04/16 07:09:53;;;;;;;21.80;19.50;;;;;;;12.91;100.00;98857.19;109489;1251;61343;-72
2023/04/16 07:12:20;;;;;;;24.30;20.50;;;;;;;13.24;100.00;98857.29;109512;1251;64090;-73
2023/04/16 07:14:47;;;;;;;21.30;18.80;;;;;;;13.38;100.00;98859.59;109483;1251;58997;-73
2023/04/16 07:17:14;;;;;;;22.80;20.10;;;;;;;13.22;100.00;98865.86;109477;1253;59022;-73
2023/04/16 07:19:40;;;;;;;22.90;20.40;;;;;;;13.00;100.00;98869.16;109304;1251;59250;-74
2023/04/16 07:22:07;;;;;;;22.30;19.30;;;;;;;12.89;100.00;98870.42;109530;1251;60767;-73
2023/04/16 07:24:34;;;;;;;23.90;20.00;;;;;;;12.84;100.00;98877.73;109508;1251;59122;-74
2023/04/16 07:27:01;;;;;;;23.60;21.10;;;;;;;12.92;100.00;98876.61;109507;1251;59246;-74
2023/04/16 07:29:27;;;;;;;20.80;17.90;;;;;;;13.10;100.00;98877.82;109328;1251;59047;-74
2023/04/16 07:31:54;;;;;;;21.20;18.90;;;;;;;13.27;100.00;98874.90;109495;1251;67610;-73
2023/04/16 07:34:20;;;;;;;21.40;19.00;;;;;;;13.39;100.00;98877.30;109530;1253;60097;-73
2023/04/16 07:36:47;;;;;;;20.20;17.90;;;;;;;13.52;100.00;98872.71;109481;1251;60898;-74
2023/04/16 07:39:13;;;;;;;20.90;18.00;;;;;;;13.64;100.00;98876.37;109498;1251;59033;-74
2023/04/16 07:41:40;;;;;;;20.00;16.70;;;;;;;13.73;100.00;98879.95;109497;1251;59097;-73
2023/04/16 07:44:08;;;;;;;21.00;18.10;;;;;;;13.82;100.00;98879.23;109506;1251;64794;-73
2023/04/16 07:46:34;;;;;;;20.50;17.30;;;;;;;13.94;100.00;98883.42;109558;1251;61280;-73
2023/04/16 07:49:02;;;;;;;17.80;15.90;;;;;;;14.03;100.00;98885.52;109495;1251;64047;-73
2023/04/16 07:51:30;;;;;;;19.60;17.00;;;;;;;14.12;100.00;98885.98;109499;1251;58974;-72
2023/04/16 07:53:56;;;;;;;16.40;14.70;;;;;;;14.20;100.00;98884.65;109514;1251;59099;-73
2023/04/16 07:56:23;;;;;;;16.70;14.70;;;;;;;14.23;100.00;98890.42;109549;1251;67026;-73
2023/04/16 07:58:49;;;;;;;15.80;14.10;;;;;;;14.24;100.00;98892.73;109483;1253;59869;-73
2023/04/16 08:01:16;;;;;;;14.20;12.70;;;;;;;14.16;100.00;98897.30;109491;1251;64734;-73
2023/04/16 08:03:43;;;;;;;13.80;12.30;;;;;;;14.02;100.00;98898.94;109273;1251;59310;-73
2023/04/16 08:06:09;;;;;;;12.80;10.50;;;;;;;13.97;100.00;98902.98;109496;1251;59046;-73
2023/04/16 08:08:36;;;;;;;13.90;12.00;;;;;;;13.90;100.00;98897.64;109287;1251;65736;-73
2023/04/16 08:11:03;;;;;;;13.60;11.00;;;;;;;13.97;100.00;98899.00;109520;1251;61172;-72
2023/04/16 08:13:30;;;;;;;12.70;11.20;;;;;;;13.85;100.00;98901.98;109446;1251;64019;-73
2023/04/16 08:15:57;;;;;;;13.00;11.30;;;;;;;13.65;100.00;98902.02;109475;1251;58938;-73
2023/04/16 08:18:24;;;;;;;11.80;10.60;;;;;;;13.72;100.00;98901.45;109504;1251;59014;-72
2023/04/16 08:20:50;;;;;;;10.80;8.90;;;;;;;14.05;100.00;98901.77;109539;1251;64830;-73
2023/04/16 08:23:18;;;;;;;9.00;8.10;;;;;;;14.37;100.00;98895.39;109482;1253;58929;-73
2023/04/16 08:25:44;;;;;;;10.70;9.60;;;;;;;14.59;100.00;98895.52;109445;1251;63766;-73
2023/04/16 08:28:11;;;;;;;8.60;7.10;;;;;;;14.75;100.00;98894.31;109452;1253;59040;-72
2023/04/16 08:30:38;;;;;;;9.30;7.10;;;;;;;14.76;100.00;98896.04;109544;1251;59069;-73
2023/04/16 08:33:04;;;;;;;8.40;6.90;;;;;;;14.64;100.00;98894.35;109547;1251;66151;-73
2023/04/16 08:35:31;;;;;;;9.10;7.80;;;;;;;14.62;100.00;98892.50;109488;1251;61089;-73
2023/04/16 08:37:58;;;;;;;8.90;7.80;;;;;;;14.66;100.00;98890.58;109480;1251;64007;-73
2023/04/16 08:40:27;;;;;;;8.30;6.30;;;;;;;14.83;100.00;98892.38;109470;1255;59002;-73
2023/04/16 08:42:58;;;;;;;6.70;6.10;;;;;;;14.97;100.00;98895.45;109468;1251;58945;-72
2023/04/16 08:45:26;;;;;;;6.90;5.90;;;;;;;14.97;100.00;98899.23;109488;1252;67128;-73
2023/04/16 08:47:53;;;;;;;7.60;6.90;;;;;;;14.78;100.00;98899.27;109187;1256;61000;-73
2023/04/16 08:50:24;;;;;;;7.60;6.70;;;;;;;14.69;100.00;98899.52;109179;1256;65451;-74
2023/04/16 08:53:06;;;;;;;9.90;8.30;;;;;;;14.58;100.00;98903.98;108999;1256;58975;-74
2023/04/16 08:56:03;;;;;;;9.10;8.20;;;;;;;14.77;100.00;98906.27;109204;1255;59365;-74
2023/04/16 08:58:33;;;;;;;9.30;8.40;;;;;;;15.06;100.00;98907.70;108815;1260;64535;-74
2023/04/16 09:01:02;;;;;;;7.40;6.70;;;;;;;15.13;100.00;98906.44;108800;1262;61267;-74
2023/04/16 09:03:33;;;;;;;7.20;6.40;;;;;;;15.06;100.00;98905.64;108814;1260;63764;-73
2023/04/16 09:06:01;;;;;;;5.70;5.00;;;;;;;14.93;100.00;98905.45;108804;1260;58993;-73
2023/04/16 09:08:29;;;;;;;7.00;5.80;;;;;;;14.75;100.00;98904.85;108719;1260;59437;-74
2023/04/16 09:10:56;;;;;;;5.40;4.60;;;;;;;14.59;100.00;98908.94;108831;1260;66069;-74
2023/04/16 09:13:24;;;;;;;6.30;4.70;;;;;;;14.71;100.00;98909.89;108864;1260;59884;-73
2023/04/16 09:15:52;;;;;;;5.50;5.00;;;;;;;14.92;100.00;98909.47;108732;1260;63755;-73
2023/04/16 09:18:20;;;;;;;5.40;4.80;;;;;;;15.06;100.00;98907.34;108854;1259;59028;-73
2023/04/16 09:20:48;;;;;;;5.70;4.70;;;;;;;15.27;100.00;98905.40;109013;1259;59024;-73
2023/04/16 09:23:14;;;;;;;4.80;4.20;;;;;;;15.44;100.00;98904.91;108976;1259;66686;-73
2023/04/16 09:25:41;;;;;;;4.50;4.10;;;;;;;15.66;100.00;98907.11;108709;1259;158719;-72
2023/04/16 09:28:09;;;;;;;4.60;3.80;;;;;;;15.89;100.00;98903.23;108971;1262;65283;-72
2023/04/16 09:30:36;;;;;;;4.50;3.50;;;;;;;16.20;100.00;98906.06;108963;1259;59085;-73
2023/04/16 09:33:20;;;;;;;5.50;3.80;;;;;;;16.53;100.00;98908.59;108929;1259;59510;-73
2023/04/16 09:35:48;;;;;;;4.20;3.80;;;;;;;16.88;100.00;98902.08;109310;1251;65046;-73
2023/04/16 09:38:15;;;;;;;6.50;3.80;;;;;;;16.89;100.00;98904.09;109494;1251;60112;-73
2023/04/16 09:40:42;;;;;;;4.70;4.20;;;;;;;16.72;100.00;98905.70;109511;1251;64298;-73
2023/04/16 09:43:14;;;;;;;4.30;3.90;;;;;;;16.66;100.00;98903.87;109472;1251;58974;-73
2023/04/16 09:45:51;;;;;;;4.50;4.10;;;;;;;16.51;100.00;98905.66;109205;1251;59284;-73
2023/04/16 09:48:31;;;;;;;5.10;4.50;;;;;;;16.17;100.00;98910.65;109511;1251;64865;-73
2023/04/16 09:50:59;;;;;;;4.40;4.00;;;;;;;15.86;100.00;98914.54;109535;1255;60173;-73
2023/04/16 09:53:30;;;;;;;4.70;4.30;;;;;;;15.58;100.00;98912.09;109420;1251;64095;-73
2023/04/16 09:55:57;;;;;;;4.40;4.00;;;;;;;15.40;100.00;98912.27;109499;1251;58968;-72
2023/04/16 09:58:24;;;;;;;3.90;3.50;;;;;;;15.30;100.00;98912.06;109507;1251;59092;-73
2023/04/16 10:01:01;;;;;;;4.20;3.40;;;;;;;15.31;100.00;98913.94;109480;1251;64818;-73
2023/04/16 10:03:33;;;;;;;5.20;4.60;;;;;;;15.24;100.00;98916.52;109459;1252;60273;-73
2023/04/16 10:06:05;;;;;;;4.70;4.00;;;;;;;15.24;100.00;98916.70;109487;1251;64021;-73
2023/04/16 10:08:32;;;;;;;4.90;3.80;;;;;;;15.45;100.00;98916.64;109472;1251;59433;-72
2023/04/16 10:10:58;;;;;;;5.10;4.60;;;;;;;15.67;100.00;98916.71;109535;1251;58961;-72
2023/04/16 10:13:29;;;;;;;5.40;4.70;;;;;;;15.85;100.00;98914.92;109551;1251;66166;-73
2023/04/16 10:15:57;;;;;;;5.40;4.90;;;;;;;16.02;100.00;98912.89;109484;1251;59055;-73
2023/04/16 10:18:24;;;;;;;4.80;4.40;;;;;;;16.19;100.00;98915.98;109435;1251;64676;-73
2023/04/16 10:20:51;;;;;;;6.00;4.50;;;;;;;16.25;100.00;98919.75;109286;1251;58958;-73
2023/04/16 10:23:20;;;;;;;4.20;3.80;;;;;;;16.30;100.00;98921.61;109449;1251;58957;-73
2023/04/16 10:25:48;;;;;;;4.90;4.20;;;;;;;16.26;100.00;98921.25;109458;1251;66052;-73
2023/04/16 10:28:16;;;;;;;4.40;4.00;;;;;;;16.28;100.00;98921.27;109274;1258;59043;-73
2023/04/16 10:30:55;;;;;;;4.40;3.90;;;;;;;16.47;100.00;98923.93;109283;1251;64162;-73
2023/04/16 10:33:33;;;;;;;3.80;3.40;;;;;;;16.70;100.00;98922.23;109334;1251;59093;-73
2023/04/16 10:36:14;;;;;;;4.10;3.50;;;;;;;16.90;100.00;98923.07;109429;1251;59062;-73
2023/04/16 10:38:46;;;;;;;2.70;2.50;;;;;;;17.24;100.00;98918.59;109153;1251;65849;-73
2023/04/16 10:41:13;;;;;;;4.80;4.30;;;;;;;17.42;100.00;98918.33;109433;1251;58950;-72
2023/04/16 10:43:45;;;;;;;5.20;4.00;;;;;;;17.61;100.00;98918.27;109506;1251;62787;-72
2023/04/16 10:46:22;;;;;;;5.00;4.60;;;;;;;17.82;100.00;98922.49;109471;1251;59025;-72
2023/04/16 10:48:52;;;;;;;4.60;4.10;;;;;;;18.06;100.00;98917.41;109492;1252;58898;-72
2023/04/16 10:51:30;;;;;;;3.60;3.30;;;;;;;18.17;100.00;98921.54;109315;1255;67203;-73
2023/04/16 10:54:03;;;;;;;3.90;3.60;;;;;;;18.34;100.00;98921.48;109514;1251;59136;-72
2023/04/16 10:56:33;;;;;;;3.90;3.60;;;;;;;18.35;100.00;98915.07;109310;1254;64121;-73
2023/04/16 10:59:03;;;;;;;3.40;3.10;;;;;;;18.31;100.00;98917.64;109281;1254;59148;-72
2023/04/16 11:01:31;;;;;;;;;;;;;;;18.44;86.22;98915.13;109244;1254;58981;-74
2023/04/16 11:04:19;;;;;;;4.00;3.60;;;;;;;18.39;77.86;98919.77;109327;1254;66143;-73
2023/04/16 11:07:04;;;;;;;3.70;3.40;;;;;;;18.25;75.36;98917.55;109349;1254;60096;-73
2023/04/16 11:09:50;;;;;;;4.20;3.80;;;;;;;17.85;67.81;98920.09;109284;1254;63791;-73
2023/04/16 11:12:19;;;;;;;3.70;3.40;;;;;;;17.61;63.48;98919.66;109234;1254;59107;-73